createdAt,value
2019-02-04T00:01:11.464Z,101718.52
2019-02-04T00:02:15.882Z,101717.67
2019-02-04T00:03:20.119Z,101718.17
2019-02-04T00:04:24.476Z,101720.83
2019-02-04T00:05:28.657Z,101714.17
2019-02-04T00:06:33.027Z,101712.84
2019-02-04T00:07:37.140Z,101709.81
2019-02-04T00:08:41.470Z,101707.16
2019-02-04T00:09:45.707Z,101705.46
2019-02-04T00:10:49.970Z,101704.48
2019-02-04T00:11:54.214Z,101701.95
2019-02-04T00:12:58.487Z,101704.76
2019-02-04T00:14:02.721Z,101711.77
2019-02-04T00:15:07.066Z,101707.07
2019-02-04T00:16:11.448Z,101710.09
2019-02-04T00:17:15.849Z,101714.44
2019-02-04T00:18:20.032Z,101714.95
2019-02-04T00:19:24.316Z,101717.00
2019-02-04T00:20:28.608Z,101717.00
2019-02-04T00:21:32.689Z,101709.84
2019-02-04T00:22:37.080Z,101707.66
2019-02-04T00:23:41.376Z,101709.48
2019-02-04T00:24:45.583Z,101710.72
2019-02-04T00:25:49.816Z,101713.38
2019-02-04T00:26:54.103Z,101716.64
2019-02-04T00:27:58.541Z,101711.31
2019-02-04T00:29:02.750Z,101713.48
2019-02-04T00:30:07.289Z,101709.62
2019-02-04T00:31:11.587Z,101713.27
2019-02-04T00:32:15.874Z,101717.63
2019-02-04T00:33:20.191Z,101726.59
2019-02-04T00:34:24.475Z,101725.27
2019-02-04T00:35:28.689Z,101723.58
2019-02-04T00:36:33.001Z,101727.58
2019-02-04T00:37:37.197Z,101731.22
2019-02-04T00:38:41.538Z,101733.89
2019-02-04T00:39:45.847Z,101742.23
2019-02-04T00:40:50.090Z,101743.70
2019-02-04T00:41:54.391Z,101744.69
2019-02-04T00:42:58.718Z,101743.84
2019-02-04T00:44:02.990Z,101764.78
2019-02-04T00:45:07.544Z,101757.77
2019-02-04T00:46:11.768Z,101757.17
2019-02-04T00:47:15.939Z,101758.95
2019-02-04T00:48:20.136Z,101752.42
2019-02-04T00:49:24.550Z,101755.09
2019-02-04T00:50:28.855Z,101757.41
2019-02-04T00:51:33.110Z,101755.09
2019-02-04T00:52:37.424Z,101750.74
2019-02-04T00:53:41.734Z,101750.03
2019-02-04T00:54:45.967Z,101754.03
2019-02-04T00:55:50.237Z,101751.37
2019-02-04T00:56:54.548Z,101750.88
2019-02-04T00:57:58.829Z,101749.68
2019-02-04T00:59:02.948Z,101746.66
2019-02-04T01:00:09.692Z,101744.84
2019-02-04T01:01:13.823Z,101737.81
2019-02-04T01:02:18.035Z,101732.48
2019-02-04T01:03:22.444Z,101734.66
2019-02-04T01:04:26.640Z,101727.02
2019-02-04T01:05:30.995Z,101724.14
2019-02-04T01:06:35.386Z,101724.01
2019-02-04T01:07:39.626Z,101730.31
2019-02-04T01:08:43.981Z,101729.83
2019-02-04T01:09:48.189Z,101729.47
2019-02-04T01:10:52.544Z,101732.98
2019-02-04T01:11:56.815Z,101732.98
2019-02-04T01:13:01.021Z,101729.58
2019-02-04T01:14:05.311Z,101732.59
2019-02-04T01:15:09.564Z,101733.57
2019-02-04T01:16:13.897Z,101732.59
2019-02-04T01:17:18.108Z,101733.92
2019-02-04T01:18:22.416Z,101732.23
2019-02-04T01:19:26.913Z,101742.90
2019-02-04T01:20:31.252Z,101748.63
2019-02-04T01:21:35.524Z,101754.59
2019-02-04T01:22:39.746Z,101747.44
2019-02-04T01:23:44.059Z,101752.14
2019-02-04T01:24:48.394Z,101756.76
2019-02-04T01:25:52.689Z,101758.45
2019-02-04T01:26:56.943Z,101769.46
2019-02-04T01:28:01.220Z,101770.94
2019-02-04T01:29:05.634Z,101771.72
2019-02-04T01:30:10.370Z,101778.73
2019-02-04T01:31:14.461Z,101779.34
2019-02-04T01:32:18.810Z,101775.70
2019-02-04T01:33:23.213Z,101780.31
2019-02-04T01:34:27.462Z,101774.02
2019-02-04T01:35:31.572Z,101773.66
2019-02-04T01:36:35.814Z,101773.88
2019-02-04T01:37:40.115Z,101765.40
2019-02-04T01:38:44.403Z,101771.09
2019-02-04T01:39:48.776Z,101770.95
2019-02-04T01:40:53.126Z,101773.62
2019-02-04T01:41:57.194Z,101765.75
2019-02-04T01:43:01.581Z,101765.75
2019-02-04T01:44:05.834Z,101763.45
2019-02-04T01:45:10.156Z,101763.45
2019-02-04T01:46:14.440Z,101761.98
2019-02-04T01:47:18.767Z,101756.20
2019-02-04T01:48:23.098Z,101758.86
2019-02-04T01:49:27.398Z,101756.66
2019-02-04T01:50:31.503Z,101754.86
2019-02-04T01:51:35.700Z,101761.03
2019-02-04T01:52:39.861Z,101755.70
2019-02-04T01:53:44.251Z,101755.70
2019-02-04T01:54:48.494Z,101752.20
2019-02-04T01:55:52.827Z,101749.53
2019-02-04T01:56:57.117Z,101742.97
2019-02-04T01:58:01.446Z,101751.45
2019-02-04T01:59:05.930Z,101752.78
2019-02-04T02:00:16.856Z,101748.79
2019-02-04T02:01:20.817Z,101752.43
2019-02-04T02:02:25.155Z,101747.95
2019-02-04T02:03:29.255Z,101746.61
2019-02-04T02:04:33.571Z,101752.56
2019-02-04T02:05:37.581Z,101757.67
2019-02-04T02:06:41.847Z,101758.03
2019-02-04T02:07:46.063Z,101755.72
2019-02-04T02:08:50.328Z,101750.75
2019-02-04T02:09:54.701Z,101754.39
2019-02-04T02:10:58.771Z,101749.06
2019-02-04T02:12:03.169Z,101746.39
2019-02-04T02:13:07.396Z,101747.23
2019-02-04T02:14:11.724Z,101752.56
2019-02-04T02:15:16.146Z,101755.23
2019-02-04T02:16:20.294Z,101751.72
2019-02-04T02:17:26.633Z,101750.75
2019-02-04T02:18:29.035Z,101753.05
2019-02-04T02:19:33.281Z,101746.04
2019-02-04T02:20:37.701Z,101757.05
2019-02-04T02:21:41.935Z,101755.23
2019-02-04T02:22:46.276Z,101755.72
2019-02-04T02:23:50.454Z,101757.54
2019-02-04T02:24:54.397Z,101768.69
2019-02-04T02:25:58.699Z,101770.02
2019-02-04T02:27:03.034Z,101766.02
2019-02-04T02:28:07.163Z,101768.69
2019-02-04T02:29:11.585Z,101777.66
2019-02-04T02:30:18.393Z,101772.42
2019-02-04T02:31:22.804Z,101782.14
2019-02-04T02:32:27.059Z,101782.86
2019-02-04T02:33:31.317Z,101783.48
2019-02-04T02:34:35.684Z,101783.34
2019-02-04T02:35:40.031Z,101784.81
2019-02-04T02:36:44.303Z,101788.54
2019-02-04T02:37:48.600Z,101796.53
2019-02-04T02:38:52.704Z,101792.53
2019-02-04T02:39:56.643Z,101787.83
2019-02-04T02:41:00.811Z,101790.36
2019-02-04T02:42:05.182Z,101789.87
2019-02-04T02:43:11.581Z,101790.23
2019-02-04T02:44:13.638Z,101784.90
2019-02-04T02:45:17.802Z,101785.87
2019-02-04T02:46:22.165Z,101787.70
2019-02-04T02:47:37.871Z,101787.56
2019-02-04T02:48:30.606Z,101792.89
2019-02-04T02:49:34.885Z,101793.73
2019-02-04T02:50:39.248Z,101797.38
2019-02-04T02:51:43.485Z,101799.20
2019-02-04T02:52:47.864Z,101802.84
2019-02-04T02:53:52.195Z,101809.98
2019-02-04T02:54:56.509Z,101813.14
2019-02-04T02:56:00.812Z,101811.94
2019-02-04T02:57:05.174Z,101814.95
2019-02-04T02:58:09.526Z,101811.09
2019-02-04T02:59:13.952Z,101812.78
2019-02-04T03:00:20.852Z,101811.94
2019-02-04T03:01:25.130Z,101810.61
2019-02-04T03:02:29.470Z,101811.45
2019-02-04T03:03:33.810Z,101805.50
2019-02-04T03:04:38.194Z,101802.70
2019-02-04T03:05:42.371Z,101801.50
2019-02-04T03:06:46.679Z,101805.86
2019-02-04T03:07:50.989Z,101811.55
2019-02-04T03:08:55.257Z,101807.55
2019-02-04T03:09:59.548Z,101807.94
2019-02-04T03:11:03.773Z,101804.39
2019-02-04T03:12:08.208Z,101805.27
2019-02-04T03:13:12.560Z,101806.60
2019-02-04T03:14:16.860Z,101810.60
2019-02-04T03:15:21.177Z,101803.94
2019-02-04T03:16:25.339Z,101803.55
2019-02-04T03:17:29.678Z,101810.83
2019-02-04T03:18:33.775Z,101820.51
2019-02-04T03:19:38.057Z,101821.48
2019-02-04T03:20:42.188Z,101813.00
2019-02-04T03:21:46.364Z,101813.14
2019-02-04T03:22:50.704Z,101813.14
2019-02-04T03:23:54.799Z,101806.48
2019-02-04T03:24:59.112Z,101811.80
2019-02-04T03:26:03.386Z,101802.74
2019-02-04T03:27:07.712Z,101802.84
2019-02-04T03:28:12.039Z,101799.69
2019-02-04T03:29:16.233Z,101800.66
2019-02-04T03:30:29.521Z,101796.17
2019-02-04T03:31:33.862Z,101796.17
2019-02-04T03:32:38.373Z,101798.12
2019-02-04T03:33:42.663Z,101792.80
2019-02-04T03:34:46.866Z,101796.80
2019-02-04T03:35:51.140Z,101796.57
2019-02-04T03:36:55.544Z,101798.75
2019-02-04T03:37:59.824Z,101805.41
2019-02-04T03:39:04.204Z,101810.73
2019-02-04T03:40:09.437Z,101815.22
2019-02-04T03:41:13.770Z,101816.06
2019-02-04T03:42:18.203Z,101821.03
2019-02-04T03:43:22.579Z,101818.59
2019-02-04T03:44:26.798Z,101813.98
2019-02-04T03:45:31.109Z,101818.59
2019-02-04T03:46:35.489Z,101823.31
2019-02-04T03:47:39.836Z,101820.29
2019-02-04T03:48:44.048Z,101831.42
2019-02-04T03:49:48.233Z,101833.60
2019-02-04T03:50:52.511Z,101830.36
2019-02-04T03:51:56.906Z,101826.84
2019-02-04T03:53:01.145Z,101825.03
2019-02-04T03:54:05.469Z,101821.03
2019-02-04T03:55:10.600Z,101834.35
2019-02-04T03:56:14.920Z,101829.02
2019-02-04T03:57:19.227Z,101825.38
2019-02-04T03:58:23.607Z,101824.54
2019-02-04T03:59:27.813Z,101836.53
2019-02-04T04:00:34.328Z,101837.73
2019-02-04T04:01:38.609Z,101840.75
2019-02-04T04:02:42.945Z,101838.22
2019-02-04T04:03:47.212Z,101843.06
2019-02-04T04:04:51.501Z,101844.75
2019-02-04T04:05:55.731Z,101838.09
2019-02-04T04:06:59.934Z,101842.70
2019-02-04T04:08:04.450Z,101842.70
2019-02-04T04:09:08.818Z,101842.34
2019-02-04T04:10:13.064Z,101845.36
2019-02-04T04:11:17.406Z,101841.37
2019-02-04T04:12:21.661Z,101845.01
2019-02-04T04:13:25.819Z,101848.16
2019-02-04T04:14:30.072Z,101851.67
2019-02-04T04:15:34.300Z,101845.50
2019-02-04T04:16:38.664Z,101850.92
2019-02-04T04:17:42.927Z,101849.94
2019-02-04T04:18:47.244Z,101849.49
2019-02-04T04:19:51.547Z,101845.01
2019-02-04T04:20:55.813Z,101853.94
2019-02-04T04:22:00.157Z,101846.92
2019-02-04T04:23:04.362Z,101848.61
2019-02-04T04:24:08.668Z,101848.52
2019-02-04T04:25:14.180Z,101849.10
2019-02-04T04:26:18.502Z,101848.61
2019-02-04T04:27:22.786Z,101850.92
2019-02-04T04:28:27.121Z,101851.28
2019-02-04T04:29:31.486Z,101847.67
2019-02-04T04:30:35.817Z,101842.34
2019-02-04T04:31:40.163Z,101846.83
2019-02-04T04:32:44.427Z,101845.01
2019-02-04T04:33:48.736Z,101847.28
2019-02-04T04:34:53.086Z,101853.00
2019-02-04T04:35:57.361Z,101850.92
2019-02-04T04:37:01.659Z,101857.94
2019-02-04T04:38:05.906Z,101850.56
2019-02-04T04:39:10.166Z,101850.92
2019-02-04T04:40:14.506Z,101846.92
2019-02-04T04:41:18.825Z,101850.08
2019-02-04T04:42:23.141Z,101846.21
2019-02-04T04:43:27.399Z,101845.72
2019-02-04T04:44:31.742Z,101834.22
2019-02-04T04:45:36.012Z,101844.52
2019-02-04T04:46:40.217Z,101840.52
2019-02-04T04:47:44.478Z,101843.19
2019-02-04T04:48:48.727Z,101846.34
2019-02-04T04:49:53.120Z,101853.35
2019-02-04T04:50:57.493Z,101857.84
2019-02-04T04:52:01.725Z,101857.48
2019-02-04T04:53:05.909Z,101852.51
2019-02-04T04:54:10.235Z,101862.19
2019-02-04T04:55:16.765Z,101857.73
2019-02-04T04:56:21.050Z,101848.05
2019-02-04T04:57:25.288Z,101845.62
2019-02-04T04:58:29.585Z,101843.94
2019-02-04T04:59:33.903Z,101844.16
2019-02-04T05:00:38.169Z,101842.34
2019-02-04T05:01:42.343Z,101844.03
2019-02-04T05:02:46.641Z,101843.19
2019-02-04T05:03:50.937Z,101837.77
2019-02-04T05:04:55.200Z,101837.98
2019-02-04T05:05:59.355Z,101844.29
2019-02-04T05:07:03.761Z,101843.58
2019-02-04T05:08:08.049Z,101843.94
2019-02-04T05:09:12.131Z,101851.08
2019-02-04T05:10:17.668Z,101846.11
2019-02-04T05:11:21.983Z,101847.92
2019-02-04T05:12:26.247Z,101844.29
2019-02-04T05:13:30.573Z,101844.29
2019-02-04T05:14:34.709Z,101845.27
2019-02-04T05:15:38.992Z,101851.56
2019-02-04T05:16:43.121Z,101854.09
2019-02-04T05:17:47.420Z,101851.92
2019-02-04T05:18:51.638Z,101848.28
2019-02-04T05:19:55.863Z,101856.28
2019-02-04T05:21:00.381Z,101860.27
2019-02-04T05:22:04.700Z,101859.91
2019-02-04T05:23:08.931Z,101859.42
2019-02-04T05:24:13.299Z,101861.24
2019-02-04T05:25:17.673Z,101859.42
2019-02-04T05:26:21.972Z,101862.58
2019-02-04T05:27:26.317Z,101860.75
2019-02-04T05:28:30.635Z,101858.45
2019-02-04T05:29:34.929Z,101856.41
2019-02-04T05:30:39.281Z,101854.94
2019-02-04T05:31:43.525Z,101861.11
2019-02-04T05:32:47.876Z,101852.64
2019-02-04T05:33:52.036Z,101855.92
2019-02-04T05:34:57.516Z,101856.76
2019-02-04T05:36:00.646Z,101858.94
2019-02-04T05:37:04.889Z,101869.59
2019-02-04T05:38:09.201Z,101870.92
2019-02-04T05:39:13.528Z,101865.59
2019-02-04T05:40:17.887Z,101861.11
2019-02-04T05:41:22.208Z,101866.44
2019-02-04T05:42:26.559Z,101868.13
2019-02-04T05:43:30.851Z,101862.93
2019-02-04T05:44:35.061Z,101856.63
2019-02-04T05:45:39.279Z,101854.94
2019-02-04T05:46:43.503Z,101849.75
2019-02-04T05:47:47.842Z,101848.90
2019-02-04T05:48:52.188Z,101848.90
2019-02-04T05:49:56.467Z,101841.75
2019-02-04T05:51:00.851Z,101843.45
2019-02-04T05:52:05.267Z,101849.62
2019-02-04T05:53:09.627Z,101838.83
2019-02-04T05:54:13.903Z,101843.67
2019-02-04T05:55:19.335Z,101844.64
2019-02-04T05:56:23.659Z,101843.31
2019-02-04T05:57:28.004Z,101842.95
2019-02-04T05:58:33.055Z,101839.94
2019-02-04T05:59:36.493Z,101844.78
2019-02-04T06:00:44.380Z,101845.27
2019-02-04T06:01:48.695Z,101850.59
2019-02-04T06:02:52.809Z,101857.02
2019-02-04T06:03:56.992Z,101861.38
2019-02-04T06:05:01.217Z,101872.52
2019-02-04T06:06:05.478Z,101875.17
2019-02-04T06:07:09.815Z,101877.48
2019-02-04T06:08:14.201Z,101877.94
2019-02-04T06:09:18.611Z,101875.75
2019-02-04T06:10:22.538Z,101876.73
2019-02-04T06:11:26.487Z,101879.03
2019-02-04T06:12:30.385Z,101881.21
2019-02-04T06:13:34.322Z,101881.70
2019-02-04T06:14:38.290Z,101880.36
2019-02-04T06:15:42.306Z,101881.70
2019-02-04T06:16:46.266Z,101871.17
2019-02-04T06:17:50.274Z,101881.70
2019-02-04T06:19:00.993Z,101879.16
2019-02-04T06:19:58.314Z,101882.67
2019-02-04T06:21:02.254Z,101884.48
2019-02-04T06:22:06.207Z,101883.64
2019-02-04T06:23:10.251Z,101885.81
2019-02-04T06:24:14.316Z,101883.28
2019-02-04T06:25:18.246Z,101883.64
2019-02-04T06:26:22.187Z,101891.27
2019-02-04T06:27:26.584Z,101893.09
2019-02-04T06:28:30.729Z,101890.78
2019-02-04T06:29:34.825Z,101888.13
2019-02-04T06:30:38.850Z,101891.27
2019-02-04T06:31:42.768Z,101889.09
2019-02-04T06:32:46.834Z,101889.45
2019-02-04T06:33:50.820Z,101885.95
2019-02-04T06:34:54.932Z,101880.63
2019-02-04T06:35:59.197Z,101883.64
2019-02-04T06:37:03.081Z,101882.31
2019-02-04T06:38:07.091Z,101886.66
2019-02-04T06:39:11.891Z,101884.00
2019-02-04T06:40:16.248Z,101886.30
2019-02-04T06:41:20.377Z,101887.15
2019-02-04T06:42:24.319Z,101880.98
2019-02-04T06:43:28.239Z,101882.67
2019-02-04T06:44:32.175Z,101880.00
2019-02-04T06:45:36.133Z,101882.67
2019-02-04T06:46:40.179Z,101884.00
2019-02-04T06:47:44.222Z,101887.64
2019-02-04T06:48:48.218Z,101884.13
2019-02-04T06:49:52.150Z,101892.96
2019-02-04T06:50:56.156Z,101890.30
2019-02-04T06:52:00.106Z,101884.26
2019-02-04T06:53:04.037Z,101880.98
2019-02-04T06:54:08.055Z,101890.78
2019-02-04T06:55:17.849Z,101880.97
2019-02-04T06:56:21.816Z,101883.14
2019-02-04T06:57:25.778Z,101872.86
2019-02-04T06:58:29.739Z,101879.16
2019-02-04T06:59:33.879Z,101882.66
2019-02-04T07:00:37.830Z,101881.81
2019-02-04T07:01:41.775Z,101879.41
2019-02-04T07:02:45.899Z,101883.77
2019-02-04T07:03:49.856Z,101879.77
2019-02-04T07:04:53.809Z,101875.77
2019-02-04T07:05:57.797Z,101878.92
2019-02-04T07:07:01.815Z,101875.91
2019-02-04T07:08:05.876Z,101883.77
2019-02-04T07:09:11.833Z,101883.41
2019-02-04T07:10:18.122Z,101890.42
2019-02-04T07:11:22.094Z,101890.91
2019-02-04T07:12:26.174Z,101885.58
2019-02-04T07:13:30.146Z,101889.21
2019-02-04T07:14:34.051Z,101887.39
2019-02-04T07:15:38.042Z,101886.91
2019-02-04T07:16:42.008Z,101883.05
2019-02-04T07:17:46.052Z,101884.37
2019-02-04T07:18:50.105Z,101880.38
2019-02-04T07:19:54.117Z,101880.38
2019-02-04T07:20:58.079Z,101879.53
2019-02-04T07:22:02.075Z,101877.36
2019-02-04T07:23:06.143Z,101874.70
2019-02-04T07:24:10.127Z,101874.34
2019-02-04T07:25:14.222Z,101874.56
2019-02-04T07:26:18.192Z,101877.70
2019-02-04T07:27:22.676Z,101882.91
2019-02-04T07:28:26.310Z,101883.39
2019-02-04T07:29:30.289Z,101884.72
2019-02-04T07:30:34.281Z,101880.73
2019-02-04T07:31:38.232Z,101882.06
2019-02-04T07:32:42.173Z,101879.39
2019-02-04T07:33:46.239Z,101886.54
2019-02-04T07:34:50.189Z,101885.20
2019-02-04T07:35:54.169Z,101891.50
2019-02-04T07:36:58.076Z,101885.20
2019-02-04T07:38:02.050Z,101888.36
2019-02-04T07:39:08.387Z,101887.77
2019-02-04T07:40:16.986Z,101881.95
2019-02-04T07:41:20.958Z,101885.82
2019-02-04T07:42:25.718Z,101888.97
2019-02-04T07:43:29.658Z,101885.82
2019-02-04T07:44:33.632Z,101893.31
2019-02-04T07:45:37.651Z,101888.23
2019-02-04T07:46:41.742Z,101897.91
2019-02-04T07:47:45.734Z,101897.30
2019-02-04T07:48:49.681Z,101896.94
2019-02-04T07:49:53.847Z,101905.68
2019-02-04T07:50:57.928Z,101904.80
2019-02-04T07:52:01.935Z,101903.95
2019-02-04T07:53:05.925Z,101904.34
2019-02-04T07:54:09.887Z,101909.67
2019-02-04T07:55:13.915Z,101911.36
2019-02-04T07:56:17.951Z,101915.00
2019-02-04T07:57:21.880Z,101903.11
2019-02-04T07:58:25.998Z,101915.00
2019-02-04T07:59:30.084Z,101905.68
2019-02-04T08:00:34.256Z,101908.70
2019-02-04T08:01:38.185Z,101906.04
2019-02-04T08:02:42.145Z,101904.70
2019-02-04T08:03:46.167Z,101900.80
2019-02-04T08:04:50.138Z,101907.86
2019-02-04T08:05:54.188Z,101905.68
2019-02-04T08:06:58.128Z,101907.59
2019-02-04T08:08:02.150Z,101903.95
2019-02-04T08:09:09.070Z,101900.80
2019-02-04T08:10:13.203Z,101899.60
2019-02-04T08:11:17.123Z,101897.55
2019-02-04T08:12:21.076Z,101907.23
2019-02-04T08:13:25.007Z,101902.03
2019-02-04T08:14:29.055Z,101901.19
2019-02-04T08:15:36.530Z,101902.27
2019-02-04T08:16:40.484Z,101909.28
2019-02-04T08:17:44.516Z,101907.70
2019-02-04T08:18:48.532Z,101908.94
2019-02-04T08:19:52.550Z,101905.79
2019-02-04T08:20:56.570Z,101907.48
2019-02-04T08:22:00.587Z,101904.81
2019-02-04T08:23:04.678Z,101910.50
2019-02-04T08:24:08.692Z,101905.79
2019-02-04T08:25:13.355Z,101906.85
2019-02-04T08:26:17.371Z,101900.11
2019-02-04T08:27:21.344Z,101897.45
2019-02-04T08:28:25.371Z,101898.77
2019-02-04T08:29:29.342Z,101892.48
2019-02-04T08:30:37.891Z,101895.98
2019-02-04T08:31:39.144Z,101892.84
2019-02-04T08:32:43.101Z,101894.05
2019-02-04T08:33:47.051Z,101892.72
2019-02-04T08:34:51.040Z,101897.06
2019-02-04T08:35:55.151Z,101899.73
2019-02-04T08:36:59.174Z,101894.41
2019-02-04T08:38:03.366Z,101901.91
2019-02-04T08:39:09.118Z,101896.58
2019-02-04T08:40:13.281Z,101904.56
2019-02-04T08:41:17.258Z,101901.42
2019-02-04T08:42:21.353Z,101898.76
2019-02-04T08:43:25.358Z,101900.94
2019-02-04T08:44:29.385Z,101901.42
2019-02-04T08:45:33.423Z,101908.92
2019-02-04T08:46:37.462Z,101904.44
2019-02-04T08:47:41.588Z,101907.95
2019-02-04T08:48:45.505Z,101910.25
2019-02-04T08:49:58.005Z,101909.53
2019-02-04T08:50:53.615Z,101907.72
2019-02-04T08:51:57.528Z,101907.23
2019-02-04T08:53:01.788Z,101905.41
2019-02-04T08:54:05.839Z,101909.28
2019-02-04T08:55:10.200Z,101910.61
2019-02-04T08:56:14.144Z,101907.02
2019-02-04T08:57:18.168Z,101908.70
2019-02-04T08:58:28.755Z,101908.34
2019-02-04T08:59:32.759Z,101907.38
2019-02-04T09:00:36.738Z,101896.58
2019-02-04T09:01:40.707Z,101898.14
2019-02-04T09:02:44.695Z,101900.80
2019-02-04T09:03:48.777Z,101905.28
2019-02-04T09:04:52.748Z,101897.30
2019-02-04T09:05:56.783Z,101906.52
2019-02-04T09:07:00.720Z,101901.69
2019-02-04T09:08:04.728Z,101902.53
2019-02-04T09:09:09.753Z,101899.38
2019-02-04T09:10:16.494Z,101901.08
2019-02-04T09:11:20.565Z,101899.74
2019-02-04T09:12:24.530Z,101901.92
2019-02-04T09:13:28.478Z,101902.77
2019-02-04T09:14:32.579Z,101902.77
2019-02-04T09:15:36.599Z,101902.28
2019-02-04T09:16:40.577Z,101901.44
2019-02-04T09:17:44.659Z,101900.47
2019-02-04T09:18:48.699Z,101903.38
2019-02-04T09:19:52.711Z,101903.38
2019-02-04T09:20:56.765Z,101905.42
2019-02-04T09:22:00.732Z,101904.94
2019-02-04T09:23:06.196Z,101902.77
2019-02-04T09:24:08.821Z,101901.44
2019-02-04T09:25:13.848Z,101899.26
2019-02-04T09:26:17.796Z,101897.93
2019-02-04T09:27:21.791Z,101893.94
2019-02-04T09:28:25.742Z,101893.58
2019-02-04T09:29:29.673Z,101893.58
2019-02-04T09:30:33.719Z,101897.08
2019-02-04T09:31:37.661Z,101894.42
2019-02-04T09:32:41.654Z,101889.09
2019-02-04T09:33:45.616Z,101893.58
2019-02-04T09:34:49.597Z,101891.76
2019-02-04T09:35:53.585Z,101893.45
2019-02-04T09:36:57.661Z,101887.41
2019-02-04T09:38:01.683Z,101882.44
2019-02-04T09:39:08.762Z,101884.26
2019-02-04T09:40:16.549Z,101887.77
2019-02-04T09:41:20.567Z,101887.64
2019-02-04T09:42:24.535Z,101881.83
2019-02-04T09:43:28.565Z,101882.67
2019-02-04T09:44:32.554Z,101880.86
2019-02-04T09:45:36.653Z,101887.16
2019-02-04T09:46:40.646Z,101889.33
2019-02-04T09:47:44.699Z,101894.53
2019-02-04T09:48:48.671Z,101900.57
2019-02-04T09:49:52.682Z,101900.96
2019-02-04T09:50:59.092Z,101892.97
2019-02-04T09:52:03.028Z,101905.67
2019-02-04T09:53:07.026Z,101903.50
2019-02-04T09:54:11.137Z,101908.82
2019-02-04T09:55:19.192Z,101908.46
2019-02-04T09:56:23.226Z,101912.45
2019-02-04T09:57:27.259Z,101912.81
2019-02-04T09:58:31.241Z,101914.86
2019-02-04T09:59:35.226Z,101914.38
2019-02-04T10:00:39.171Z,101914.73
2019-02-04T10:01:43.259Z,101911.36
2019-02-04T10:02:47.226Z,101908.70
2019-02-04T10:03:51.170Z,101903.25
2019-02-04T10:04:55.115Z,101905.06
2019-02-04T10:05:59.127Z,101902.63
2019-02-04T10:07:03.199Z,101903.12
2019-02-04T10:08:07.291Z,101899.48
2019-02-04T10:09:11.251Z,101900.81
2019-02-04T10:10:17.073Z,101908.70
2019-02-04T10:11:21.024Z,101910.89
2019-02-04T10:12:25.110Z,101909.06
2019-02-04T10:13:29.407Z,101908.58
2019-02-04T10:14:33.438Z,101914.27
2019-02-04T10:15:39.598Z,101911.96
2019-02-04T10:16:43.645Z,101905.66
2019-02-04T10:17:47.749Z,101909.17
2019-02-04T10:18:52.054Z,101910.02
2019-02-04T10:19:56.356Z,101908.10
2019-02-04T10:21:00.415Z,101908.10
2019-02-04T10:22:04.664Z,101903.63
2019-02-04T10:23:09.055Z,101903.36
2019-02-04T10:24:13.200Z,101902.39
2019-02-04T10:25:19.714Z,101892.13
2019-02-04T10:26:23.822Z,101896.22
2019-02-04T10:27:27.934Z,101896.12
2019-02-04T10:28:31.856Z,101903.01
2019-02-04T10:29:35.990Z,101899.02
2019-02-04T10:30:40.003Z,101899.86
2019-02-04T10:31:44.086Z,101900.22
2019-02-04T10:32:48.243Z,101903.60
2019-02-04T10:33:52.271Z,101903.11
2019-02-04T10:34:56.763Z,101905.29
2019-02-04T10:36:00.796Z,101911.72
2019-02-04T10:37:04.875Z,101909.19
2019-02-04T10:38:08.914Z,101899.61
2019-02-04T10:39:12.892Z,101900.94
2019-02-04T10:40:19.036Z,101907.23
2019-02-04T10:41:23.053Z,101909.90
2019-02-04T10:42:27.110Z,101911.59
2019-02-04T10:43:31.187Z,101910.26
2019-02-04T10:44:35.155Z,101906.62
2019-02-04T10:45:39.305Z,101911.00
2019-02-04T10:46:43.313Z,101911.72
2019-02-04T10:47:47.515Z,101916.56
2019-02-04T10:48:51.678Z,101910.39
2019-02-04T10:49:55.587Z,101904.70
2019-02-04T10:50:59.763Z,101916.44
2019-02-04T10:52:03.778Z,101914.62
2019-02-04T10:53:08.493Z,101919.10
2019-02-04T10:54:12.557Z,101918.38
2019-02-04T10:55:16.657Z,101921.28
2019-02-04T10:56:20.605Z,101920.20
2019-02-04T10:57:24.604Z,101925.41
2019-02-04T10:58:28.544Z,101928.42
2019-02-04T10:59:32.565Z,101918.13
2019-02-04T11:00:36.742Z,101916.92
2019-02-04T11:01:40.798Z,101915.83
2019-02-04T11:02:45.353Z,101916.19
2019-02-04T11:03:49.659Z,101916.44
2019-02-04T11:04:53.735Z,101915.70
2019-02-04T11:05:57.782Z,101908.19
2019-02-04T11:07:01.871Z,101913.03
2019-02-04T11:08:06.557Z,101909.42
2019-02-04T11:09:10.639Z,101913.52
2019-02-04T11:10:15.328Z,101907.70
2019-02-04T11:11:19.308Z,101910.76
2019-02-04T11:12:23.256Z,101911.21
2019-02-04T11:13:27.300Z,101909.42
2019-02-04T11:14:31.318Z,101912.55
2019-02-04T11:15:35.619Z,101911.60
2019-02-04T11:16:39.588Z,101914.00
2019-02-04T11:17:43.719Z,101913.03
2019-02-04T11:18:47.835Z,101918.48
2019-02-04T11:19:59.310Z,101914.48
2019-02-04T11:21:03.475Z,101910.63
2019-02-04T11:22:07.562Z,101907.61
2019-02-04T11:23:11.612Z,101911.34
2019-02-04T11:24:15.657Z,101903.36
2019-02-04T11:25:19.775Z,101902.61
2019-02-04T11:26:23.874Z,101899.95
2019-02-04T11:27:28.030Z,101902.13
2019-02-04T11:28:32.068Z,101904.20
2019-02-04T11:29:36.142Z,101903.59
2019-02-04T11:30:46.812Z,101897.28
2019-02-04T11:31:50.751Z,101901.02
2019-02-04T11:32:54.768Z,101896.18
2019-02-04T11:33:58.819Z,101896.67
2019-02-04T11:35:02.747Z,101894.75
2019-02-04T11:36:06.918Z,101893.03
2019-02-04T11:37:10.944Z,101893.42
2019-02-04T11:38:15.099Z,101892.67
2019-02-04T11:39:19.060Z,101890.01
2019-02-04T11:40:26.217Z,101886.98
2019-02-04T11:41:30.246Z,101888.45
2019-02-04T11:42:34.295Z,101885.16
2019-02-04T11:43:38.310Z,101890.23
2019-02-04T11:44:42.265Z,101887.92
2019-02-04T11:45:46.348Z,101890.48
2019-02-04T11:46:50.391Z,101889.03
2019-02-04T11:47:54.432Z,101888.54
2019-02-04T11:48:59.188Z,101893.38
2019-02-04T11:50:03.188Z,101887.20
2019-02-04T11:51:09.916Z,101888.28
2019-02-04T11:52:11.359Z,101885.16
2019-02-04T11:53:15.390Z,101886.95
2019-02-04T11:54:19.323Z,101883.44
2019-02-04T11:55:23.499Z,101877.63
2019-02-04T11:56:27.499Z,101884.67
2019-02-04T11:57:31.607Z,101883.44
2019-02-04T11:58:35.688Z,101879.80
2019-02-04T11:59:39.639Z,101879.57
2019-02-04T12:00:43.735Z,101875.08
2019-02-04T12:01:47.727Z,101874.86
2019-02-04T12:02:52.590Z,101874.11
2019-02-04T12:03:56.625Z,101875.94
2019-02-04T12:05:00.763Z,101877.63
2019-02-04T12:06:04.828Z,101877.52
2019-02-04T12:07:08.824Z,101877.75
2019-02-04T12:08:14.080Z,101874.73
2019-02-04T12:09:18.106Z,101874.73
2019-02-04T12:10:28.955Z,101868.42
2019-02-04T12:11:32.959Z,101876.77
2019-02-04T12:12:37.217Z,101874.47
2019-02-04T12:13:41.394Z,101873.39
2019-02-04T12:14:45.399Z,101877.13